Time;durP1;ratioP1;P1;durP2;ratioP2;P2;SDS_P1;SDS_P2;PMS_P1;PMS_P2;Temp;Humidity;BMP_temperature;BMP_pressure;BME280_temperature;BME280_humidity;BME280_pressure;Samples;Min_cycle;Max_cycle;Signal;HPM_P1;HPM_P2
2022/05/04 05:32:01;;;;;;;4.28;1.30;;;;;;;12.40;100.00;99003.34;5210876;27;20425;-50
2022/05/04 05:34:31;;;;;;;5.75;1.00;;;;;;;13.09;100.00;99025.41;5189307;27;20045;-58
2022/05/04 05:36:57;;;;;;;4.45;1.27;;;;;;;12.39;100.00;99043.78;5189165;27;20095;-52
2022/05/04 05:39:23;;;;;;;1.23;0.90;;;;;;;12.37;100.00;99042.59;5189321;27;20469;-48
2022/05/04 05:41:49;;;;;;;4.70;1.17;;;;;;;13.23;100.00;99037.66;5189206;27;20058;-50
2022/05/04 05:44:16;;;;;;;6.68;1.30;;;;;;;13.19;100.00;99052.22;5189423;27;20046;-50
2022/05/04 05:46:42;;;;;;;4.53;1.65;;;;;;;12.69;100.00;99046.41;5189241;27;20080;-50
2022/05/04 05:49:09;;;;;;;8.77;1.33;;;;;;;13.28;99.14;99053.84;5188974;27;20045;-49
2022/05/04 05:51:35;;;;;;;3.92;1.15;;;;;;;13.30;96.24;99062.53;5189207;27;20054;-49
2022/05/04 05:54:01;;;;;;;4.72;1.35;;;;;;;14.00;95.67;99066.72;5189458;27;20415;-52
2022/05/04 05:56:27;;;;;;;3.17;1.27;;;;;;;14.46;90.71;99079.81;5188953;27;20056;-52
2022/05/04 05:58:54;;;;;;;6.82;1.30;;;;;;;14.15;93.11;99075.81;5189186;27;20042;-48
2022/05/04 06:01:20;;;;;;;6.53;1.10;;;;;;;14.00;89.70;99085.25;5188821;27;20531;-49
2022/05/04 06:03:46;;;;;;;1.38;0.90;;;;;;;14.14;90.24;99082.50;5188918;27;20041;-51
2022/05/04 06:06:13;;;;;;;9.90;1.10;;;;;;;14.39;89.03;99068.75;5188917;27;20102;-50
2022/05/04 06:08:39;;;;;;;2.80;1.33;;;;;;;14.06;86.80;99097.44;5188478;27;20050;-49
2022/05/04 06:11:05;;;;;;;2.90;1.25;;;;;;;13.68;90.51;99094.16;5188739;27;20054;-50
2022/05/04 06:13:32;;;;;;;2.50;1.20;;;;;;;14.41;89.63;99095.94;5188435;27;20512;-51
2022/05/04 06:15:58;;;;;;;5.72;1.10;;;;;;;14.17;85.71;99103.00;5188612;27;20094;-48
2022/05/04 06:18:24;;;;;;;14.55;2.45;;;;;;;13.92;92.54;99092.69;5188516;27;20564;-47
2022/05/04 06:20:50;;;;;;;1.85;1.00;;;;;;;14.54;87.28;99103.47;5188881;27;20057;-50
2022/05/04 06:23:17;;;;;;;4.45;1.20;;;;;;;14.87;85.42;99104.28;5188514;27;20053;-53
2022/05/04 06:25:45;;;;;;;30.80;2.45;;;;;;;14.86;83.85;99099.13;5189126;27;20087;-50
2022/05/04 06:28:11;;;;;;;1.55;0.95;;;;;;;14.80;82.01;99101.53;5188788;27;20049;-49
2022/05/04 06:36:06;;;;;;;27.98;4.53;;;;;;;16.35;86.39;99102.59;5188645;27;20127;-56
2022/05/04 06:38:33;;;;;;;3.55;1.20;;;;;;;16.11;80.81;99115.38;5188735;27;20046;-57
2022/05/04 06:41:00;;;;;;;23.73;4.03;;;;;;;15.66;85.24;99117.91;5188601;27;20046;-57
2022/05/04 06:43:27;;;;;;;4.10;1.27;;;;;;;15.57;73.28;99131.38;5173963;27;20176;-55
2022/05/04 06:45:53;;;;;;;4.82;1.30;;;;;;;15.00;75.76;99132.28;5174231;27;20052;-57
2022/05/04 06:48:19;;;;;;;5.95;2.63;;;;;;;15.19;80.88;99140.13;5174812;27;20496;-58
2022/05/04 06:50:46;;;;;;;13.95;3.22;;;;;;;15.96;84.17;99109.94;5173940;27;20053;-58
2022/05/04 06:53:12;;;;;;;6.13;2.22;;;;;;;15.91;78.35;99128.91;5174360;27;20068;-56
2022/05/04 06:55:39;;;;;;;18.00;4.20;;;;;;;15.86;88.98;99112.72;5172071;27;20046;-57
2022/05/04 06:58:05;;;;;;;6.55;3.72;;;;;;;15.53;86.50;99118.38;5174131;27;20057;-54
2022/05/04 07:00:31;;;;;;;5.95;2.45;;;;;;;15.92;84.95;99125.72;5174176;27;20050;-57
2022/05/04 07:02:57;;;;;;;11.48;3.85;;;;;;;17.04;87.47;99112.78;5174135;27;20043;-55
2022/05/04 07:05:23;;;;;;;12.52;2.80;;;;;;;17.40;79.05;99126.28;5174163;27;20425;-57
2022/05/04 07:07:50;;;;;;;7.65;3.83;;;;;;;16.79;80.69;99142.63;5174116;27;20423;-57
2022/05/04 07:10:16;;;;;;;34.63;4.75;;;;;;;16.67;84.00;99139.16;5173997;27;20054;-55
2022/05/04 07:12:43;;;;;;;12.77;2.05;;;;;;;16.93;78.51;99148.88;5173993;27;20058;-58
2022/05/04 07:15:10;;;;;;;8.30;2.22;;;;;;;16.30;82.54;99148.09;5174399;27;20049;-58
2022/05/04 07:17:36;;;;;;;12.05;1.80;;;;;;;15.92;72.88;99147.06;5173942;27;20057;-57
2022/05/04 07:20:02;;;;;;;3.25;1.40;;;;;;;15.63;71.04;99166.50;5174195;27;20064;-57
2022/05/04 07:22:29;;;;;;;9.05;2.22;;;;;;;15.00;76.90;99179.97;5173715;27;20046;-55
2022/05/04 07:24:55;;;;;;;2.45;1.20;;;;;;;15.01;75.09;99170.50;5173821;27;20050;-57
2022/05/04 07:27:21;;;;;;;1.20;0.90;;;;;;;15.28;73.82;99184.69;5173890;27;20057;-57
2022/05/04 07:29:48;;;;;;;1.67;1.38;;;;;;;15.21;74.05;99170.13;5173700;27;20046;-56
2022/05/04 07:32:14;;;;;;;7.45;2.22;;;;;;;14.63;76.89;99176.78;5173603;27;20052;-53
2022/05/04 07:34:41;;;;;;;3.65;1.35;;;;;;;14.23;79.47;99179.44;5173672;27;20420;-53
2022/05/04 07:37:07;;;;;;;2.65;0.90;;;;;;;15.18;75.80;99168.13;5173817;27;20401;-55
2022/05/04 07:42:24;;;;;;;5.80;1.60;;;;;;;16.00;76.34;99184.56;5174065;27;20127;-56
2022/05/04 07:44:57;;;;;;;1.92;1.33;;;;;;;15.72;69.53;99193.72;5173414;27;20057;-58
2022/05/04 07:47:23;;;;;;;2.25;1.00;;;;;;;15.81;72.66;99188.56;5173638;27;20046;-56
2022/05/04 07:49:49;;;;;;;2.58;1.20;;;;;;;16.05;70.58;99197.97;5173495;27;20050;-57
2022/05/04 07:52:16;;;;;;;2.67;1.30;;;;;;;16.21;74.42;99203.06;5173453;27;20504;-58
2022/05/04 07:54:42;;;;;;;2.90;1.40;;;;;;;15.44;74.10;99192.56;5172430;27;20050;-59
2022/05/04 07:57:08;;;;;;;13.02;2.22;;;;;;;15.99;83.98;99192.09;5173377;27;20053;-63
2022/05/04 07:59:34;;;;;;;5.65;1.70;;;;;;;17.05;78.22;99180.81;5173637;27;20046;-66
2022/05/04 08:04:47;;;;;;;5.22;1.75;;;;;;;17.10;76.76;99190.69;5173353;27;20045;-59
2022/05/04 08:07:14;;;;;;;82.13;5.07;;;;;;;17.41;81.25;99189.59;5173353;27;20049;-56
2022/05/04 08:09:40;;;;;;;4.63;1.50;;;;;;;17.48;67.79;99199.03;5173042;27;20046;-60
2022/05/04 08:12:08;;;;;;;9.43;2.33;;;;;;;16.82;67.79;99213.81;5173165;27;20589;-58
2022/05/04 08:14:34;;;;;;;7.03;1.73;;;;;;;16.87;78.13;99189.25;5172930;27;20046;-62
2022/05/04 08:17:02;;;;;;;9.07;2.60;;;;;;;17.13;75.17;99198.16;5173203;27;20053;-57
2022/05/04 08:19:28;;;;;;;5.07;2.00;;;;;;;17.42;77.30;99195.91;5172862;27;20042;-56
2022/05/04 08:21:54;;;;;;;5.78;2.03;;;;;;;17.06;74.74;99215.63;5173131;27;20143;-58
2022/05/04 08:24:21;;;;;;;4.18;2.17;;;;;;;16.90;77.71;99207.06;5172934;27;20056;-59
2022/05/04 08:26:47;;;;;;;3.42;1.55;;;;;;;16.96;72.23;99207.38;5173077;27;20058;-58
2022/05/04 08:29:14;;;;;;;12.57;4.10;;;;;;;16.83;80.58;99199.59;5172873;27;20046;-54
2022/05/04 08:31:40;;;;;;;9.40;2.58;;;;;;;15.93;76.12;99204.75;5172587;27;20088;-53
2022/05/04 08:34:07;;;;;;;2.95;2.00;;;;;;;15.73;77.82;99192.56;5172937;27;20473;-58
2022/05/04 08:36:35;;;;;;;5.97;2.63;;;;;;;15.64;80.03;99195.69;5172711;27;20042;-59
2022/05/04 08:39:01;;;;;;;8.82;2.80;;;;;;;15.94;80.38;99197.22;5173049;27;20046;-58
2022/05/04 08:41:28;;;;;;;6.43;1.95;;;;;;;16.03;77.36;99216.97;5172742;27;20050;-57
2022/05/04 08:43:58;;;;;;;1.80;1.70;;;;;;;16.33;79.63;99205.38;5172919;27;20050;-58
2022/05/04 08:46:25;;;;;;;5.78;1.60;;;;;;;16.67;73.66;99202.03;5172621;27;20474;-59
2022/05/04 08:48:53;;;;;;;9.77;1.40;;;;;;;16.30;68.27;99216.47;5172819;27;20046;-58
2022/05/04 08:51:20;;;;;;;4.32;1.13;;;;;;;15.56;68.56;99230.06;5172400;27;20054;-59
2022/05/04 08:53:48;;;;;;;4.45;1.40;;;;;;;15.52;75.06;99221.75;5172729;27;20046;-59
2022/05/04 08:56:15;;;;;;;1.98;1.17;;;;;;;15.91;69.86;99217.38;5172682;27;20094;-56
2022/05/04 08:58:41;;;;;;;1.60;0.90;;;;;;;15.63;65.07;99215.47;5172354;27;20050;-58
2022/05/04 09:01:07;;;;;;;2.05;1.20;;;;;;;15.46;71.07;99215.09;5172546;27;20560;-56
2022/05/04 09:03:33;;;;;;;3.95;1.00;;;;;;;15.60;66.24;99222.56;5172370;27;20046;-56
2022/05/04 09:06:00;;;;;;;5.63;1.20;;;;;;;15.54;66.04;99233.22;5172083;27;20065;-58
2022/05/04 09:08:27;;;;;;;2.25;1.20;;;;;;;15.36;64.81;99232.47;5172645;27;20073;-58
2022/05/04 09:10:53;;;;;;;0.90;0.90;;;;;;;15.66;68.34;99231.22;5172276;27;20054;-57
2022/05/04 09:13:19;;;;;;;7.30;1.70;;;;;;;15.69;66.04;99228.50;5172580;27;20158;-56
2022/05/04 09:15:45;;;;;;;1.60;1.20;;;;;;;15.42;66.69;99227.31;5172613;27;20054;-57
2022/05/04 09:18:15;;;;;;;6.72;1.17;;;;;;;15.05;66.87;99218.22;5172692;27;20494;-58
2022/05/04 09:20:45;;;;;;;3.75;0.80;;;;;;;14.69;67.99;99236.69;5172471;27;20192;-59
2022/05/04 09:23:14;;;;;;;2.17;1.77;;;;;;;14.65;73.12;99227.63;5172283;27;20425;-58
2022/05/04 09:25:41;;;;;;;3.75;1.38;;;;;;;14.92;70.90;99227.28;5172218;27;20042;-57
2022/05/04 09:28:12;;;;;;;1.48;1.20;;;;;;;15.04;70.88;99226.91;5172528;27;20519;-54
2022/05/04 09:30:44;;;;;;;2.70;0.98;;;;;;;15.41;70.72;99228.50;5172019;27;20561;-57
2022/05/04 09:33:12;;;;;;;6.25;1.23;;;;;;;15.26;67.54;99227.69;5171947;27;20053;-56
2022/05/04 09:35:41;;;;;;;2.15;1.42;;;;;;;14.73;72.31;99233.97;5171902;27;20624;-60
2022/05/04 09:46:38;;;;;;;2.30;1.80;;;;;;;15.57;70.09;99237.16;5172052;27;20107;-62
2022/05/04 09:49:12;;;;;;;4.40;1.05;;;;;;;15.35;68.34;99230.84;5171547;27;20050;-58
2022/05/04 09:51:40;;;;;;;1.50;1.13;;;;;;;15.43;66.24;99235.22;5171655;27;20065;-60
2022/05/04 09:54:14;;;;;;;1.40;1.08;;;;;;;14.77;69.45;99232.00;5171886;27;20482;-58
2022/05/04 09:56:41;;;;;;;1.38;1.00;;;;;;;14.36;68.98;99238.56;5172026;27;20042;-58
2022/05/04 09:59:08;;;;;;;1.17;1.08;;;;;;;14.57;73.65;99221.31;5172193;27;20060;-58
2022/05/04 10:01:35;;;;;;;3.20;0.93;;;;;;;14.72;71.78;99240.66;5172080;27;20089;-55
2022/05/04 10:04:03;;;;;;;0.93;0.70;;;;;;;14.13;70.32;99232.56;5171640;27;20106;-58
2022/05/04 10:06:31;;;;;;;3.13;1.20;;;;;;;14.06;67.30;99246.28;5171407;27;20351;-60
2022/05/04 10:08:57;;;;;;;4.40;1.77;;;;;;;14.20;67.32;99242.84;5171373;27;20046;-56
2022/05/04 10:11:24;;;;;;;0.82;0.82;;;;;;;14.25;70.45;99242.44;5171560;27;20359;-58
2022/05/04 10:13:53;;;;;;;8.25;1.00;;;;;;;13.63;68.91;99244.09;5171800;27;20515;-57
2022/05/04 10:16:20;;;;;;;1.08;0.80;;;;;;;13.45;72.89;99240.41;5171504;27;20425;-59
2022/05/04 10:18:49;;;;;;;1.00;0.90;;;;;;;13.87;68.72;99230.84;5174705;27;20500;-58
2022/05/04 10:21:17;;;;;;;1.92;0.98;;;;;;;14.18;68.64;99225.88;5174948;27;20058;-59
2022/05/04 10:23:48;;;;;;;1.10;0.80;;;;;;;14.56;69.96;99243.75;5175001;27;20394;-56
2022/05/04 10:26:14;;;;;;;5.80;0.80;;;;;;;14.65;71.07;99240.66;5174930;27;20046;-58
2022/05/04 10:28:42;;;;;;;1.25;0.98;;;;;;;14.45;71.69;99238.19;5174616;27;20046;-47
2022/05/04 10:31:11;;;;;;;1.30;0.90;;;;;;;15.17;79.01;99221.81;5174630;27;20094;-49
2022/05/04 10:33:38;;;;;;;1.77;1.00;;;;;;;15.91;76.42;99218.16;5174596;27;20511;-48
2022/05/04 10:36:14;;;;;;;1.00;0.90;;;;;;;16.53;74.25;99211.19;5174418;27;20046;-50
2022/05/04 10:38:43;;;;;;;1.20;0.80;;;;;;;16.93;72.57;99214.53;5174556;27;20500;-47
2022/05/04 10:41:10;;;;;;;1.35;0.95;;;;;;;16.62;66.25;99241.97;5174609;27;20050;-46
2022/05/04 10:43:38;;;;;;;4.90;1.50;;;;;;;16.17;64.39;99247.31;5174562;27;20552;-47
2022/05/04 10:46:09;;;;;;;1.25;1.00;;;;;;;16.03;67.18;99241.84;5174648;27;20054;-49
2022/05/04 10:48:36;;;;;;;3.78;1.33;;;;;;;16.21;66.82;99228.72;5174259;27;20058;-49
2022/05/04 10:51:10;;;;;;;0.88;0.80;;;;;;;15.53;62.26;99236.38;5174336;27;20080;-46
2022/05/04 10:53:39;;;;;;;5.05;0.80;;;;;;;15.66;64.72;99243.13;5174079;27;20054;-49
2022/05/04 10:56:07;;;;;;;2.58;0.93;;;;;;;15.98;65.50;99236.72;5174147;27;20063;-48
2022/05/04 10:58:39;;;;;;;2.85;1.10;;;;;;;16.61;66.29;99236.84;5174889;27;20057;-47
2022/05/04 11:01:11;;;;;;;2.47;1.17;;;;;;;16.87;64.48;99241.09;5174603;27;20571;-49
2022/05/04 11:03:48;;;;;;;1.15;0.70;;;;;;;16.62;65.50;99238.41;5174196;27;20412;-47
2022/05/04 11:06:22;;;;;;;2.80;1.13;;;;;;;16.19;65.49;99246.91;5173963;27;20054;-48
2022/05/04 11:08:49;;;;;;;1.52;1.10;;;;;;;16.07;66.64;99250.91;5173796;27;20053;-45
2022/05/04 11:11:15;;;;;;;5.35;0.90;;;;;;;16.21;67.05;99250.06;5173846;27;20046;-46
2022/05/04 11:13:43;;;;;;;4.82;1.02;;;;;;;16.41;68.55;99247.63;5174247;27;20054;-49
2022/05/04 11:16:11;;;;;;;2.25;1.13;;;;;;;16.44;65.28;99246.81;5173716;27;20050;-49
2022/05/04 11:18:38;;;;;;;3.58;1.10;;;;;;;16.29;66.39;99243.31;5173530;27;20046;-47
2022/05/04 11:21:10;;;;;;;1.40;0.80;;;;;;;15.97;67.11;99252.53;5173969;27;20046;-45
2022/05/04 11:23:38;;;;;;;1.33;1.00;;;;;;;15.88;68.10;99245.81;5173631;27;20061;-46
2022/05/04 11:26:05;;;;;;;2.10;1.00;;;;;;;15.91;68.44;99245.81;5173835;27;20046;-49
2022/05/04 11:28:31;;;;;;;1.08;0.93;;;;;;;16.11;66.06;99248.13;5173709;27;20053;-47
2022/05/04 11:30:57;;;;;;;2.58;0.88;;;;;;;16.00;68.83;99254.50;5173831;27;20065;-48
2022/05/04 11:33:24;;;;;;;0.70;0.70;;;;;;;15.60;64.94;99252.94;5173761;27;20053;-48
2022/05/04 11:35:53;;;;;;;3.90;0.98;;;;;;;15.30;70.83;99243.09;5173786;27;20425;-50
2022/05/04 11:38:20;;;;;;;3.13;1.13;;;;;;;15.26;69.34;99241.50;5173617;27;20055;-48
2022/05/04 11:40:47;;;;;;;1.38;1.08;;;;;;;15.46;69.07;99226.13;5173685;27;20046;-46
2022/05/04 11:43:25;;;;;;;1.65;0.90;;;;;;;15.66;65.95;99245.88;5173533;27;20050;-47
2022/05/04 11:45:52;;;;;;;5.72;1.13;;;;;;;15.50;65.42;99239.94;5173297;27;20146;-46
2022/05/04 11:48:18;;;;;;;3.85;0.85;;;;;;;14.72;64.70;99254.44;5173358;27;20095;-48
2022/05/04 11:50:46;;;;;;;2.72;0.77;;;;;;;14.34;67.31;99234.59;5173386;27;20054;-49
2022/05/04 11:53:12;;;;;;;1.50;0.80;;;;;;;14.20;67.21;99231.81;5173640;27;20054;-47
2022/05/04 11:55:38;;;;;;;1.45;0.80;;;;;;;14.28;66.00;99247.19;5173556;27;20103;-48
2022/05/04 11:58:08;;;;;;;3.35;0.80;;;;;;;14.88;68.06;99249.38;5173546;27;20069;-50
2022/05/04 12:00:35;;;;;;;2.38;1.00;;;;;;;14.92;66.86;99241.09;5173346;27;20092;-48
2022/05/04 12:03:02;;;;;;;1.83;1.13;;;;;;;14.85;68.25;99235.56;5173588;27;20410;-48
2022/05/04 12:05:29;;;;;;;1.83;1.20;;;;;;;15.09;69.28;99243.06;5173725;27;20046;-47
2022/05/04 12:07:56;;;;;;;1.60;1.05;;;;;;;15.06;65.53;99252.97;5173248;27;20057;-45
2022/05/04 12:10:23;;;;;;;9.32;1.23;;;;;;;15.01;66.32;99245.03;5173483;27;20501;-47
2022/05/04 12:12:49;;;;;;;2.70;1.08;;;;;;;14.90;67.44;99238.72;5173526;27;20058;-45
2022/05/04 12:15:16;;;;;;;1.35;1.00;;;;;;;14.76;67.01;99241.44;5172802;27;20420;-46
2022/05/04 12:17:44;;;;;;;3.67;1.55;;;;;;;14.73;67.23;99245.00;5172897;27;20058;-45
2022/05/04 12:20:11;;;;;;;2.40;1.10;;;;;;;14.74;67.10;99247.38;5173483;27;20137;-46
2022/05/04 12:22:37;;;;;;;1.27;0.90;;;;;;;14.71;68.39;99237.13;5173277;27;20046;-48
2022/05/04 12:25:04;;;;;;;1.20;1.00;;;;;;;14.94;67.22;99224.94;5173043;27;20046;-47
2022/05/04 12:27:32;;;;;;;1.65;1.23;;;;;;;14.96;66.98;99239.94;5172802;27;20046;-49
2022/05/04 12:35:29;;;;;;;1.88;1.27;;;;;;;15.09;69.54;99245.84;5172862;27;20049;-46
2022/05/04 12:37:56;;;;;;;2.20;1.60;;;;;;;15.54;74.04;99227.69;5172557;27;20050;-47
2022/05/04 12:40:23;;;;;;;3.47;1.77;;;;;;;15.04;68.28;99240.72;5171983;27;20050;-46
2022/05/04 12:42:49;;;;;;;6.15;1.83;;;;;;;14.86;72.00;99237.13;5172882;27;20046;-49
2022/05/04 12:45:16;;;;;;;3.50;2.53;;;;;;;14.99;79.35;99230.06;5172718;27;20073;-47
2022/05/04 12:47:43;;;;;;;14.65;4.53;;;;;;;16.34;97.24;99195.88;5172688;27;20058;-49
2022/05/04 12:50:09;;;;;;;14.05;5.00;;;;;;;17.74;94.48;99192.84;5172363;27;20398;-48
2022/05/04 12:52:37;;;;;;;9.98;4.63;;;;;;;18.36;82.24;99202.06;5172732;27;20049;-50
2022/05/04 12:55:04;;;;;;;12.00;5.05;;;;;;;18.70;90.83;99195.63;5172395;27;20397;-46
2022/05/04 12:57:31;;;;;;;3.33;2.40;;;;;;;18.99;75.42;99230.16;5172809;27;20054;-47
2022/05/04 12:59:57;;;;;;;5.68;4.10;;;;;;;17.88;72.29;99250.94;5172294;27;20042;-49
2022/05/04 13:02:23;;;;;;;4.30;2.72;;;;;;;16.96;69.09;99251.69;5172256;27;20046;-48
2022/05/04 13:04:49;;;;;;;3.05;2.20;;;;;;;16.37;68.58;99261.47;5172522;27;20497;-49
2022/05/04 13:07:16;;;;;;;1.88;1.67;;;;;;;15.77;66.43;99260.47;5172375;27;20054;-48
2022/05/04 13:09:42;;;;;;;1.65;1.30;;;;;;;15.48;68.15;99254.13;5172301;27;20061;-49
2022/05/04 13:12:11;;;;;;;1.80;1.55;;;;;;;15.15;66.72;99252.56;5172271;27;20046;-49
2022/05/04 13:14:38;;;;;;;12.55;2.40;;;;;;;15.02;70.36;99262.41;5172437;27;20461;-47
2022/05/04 13:17:04;;;;;;;1.23;1.13;;;;;;;14.62;71.11;99252.47;5172242;27;20053;-49
2022/05/04 13:19:31;;;;;;;1.38;1.15;;;;;;;14.51;70.52;99249.66;5172381;27;20046;-46
2022/05/04 13:21:57;;;;;;;2.65;1.73;;;;;;;14.64;71.99;99253.66;5171998;27;20058;-45
2022/05/04 13:24:23;;;;;;;1.90;1.27;;;;;;;14.66;69.08;99253.25;5172315;27;20050;-46
2022/05/04 13:26:49;;;;;;;3.35;1.10;;;;;;;14.32;66.54;99256.25;5171912;27;20051;-45
2022/05/04 13:29:15;;;;;;;3.13;1.52;;;;;;;14.33;69.59;99266.91;5172124;27;20412;-45
2022/05/04 13:31:42;;;;;;;3.83;1.85;;;;;;;14.09;71.74;99256.53;5172031;27;20061;-47
2022/05/04 13:34:08;;;;;;;2.13;1.52;;;;;;;14.05;70.33;99247.47;5171870;27;20501;-46
2022/05/04 13:36:35;;;;;;;1.17;1.10;;;;;;;14.16;69.13;99244.75;5171677;27;20046;-49
2022/05/04 13:39:01;;;;;;;3.00;1.00;;;;;;;13.67;69.60;99230.34;5171757;27;20126;-48
2022/05/04 13:41:30;;;;;;;1.27;1.10;;;;;;;13.60;70.42;99246.81;5171726;27;20509;-46
2022/05/04 13:43:57;;;;;;;2.15;1.00;;;;;;;13.60;71.02;99244.84;5171896;27;20050;-47
2022/05/04 13:46:24;;;;;;;3.35;1.80;;;;;;;13.74;68.72;99260.69;5171540;27;20046;-47
2022/05/04 13:48:50;;;;;;;2.70;1.70;;;;;;;14.09;73.40;99249.09;5171577;27;20528;-48
2022/05/04 13:54:01;;;;;;;;;;;;;;;14.63;69.77;99254.03;5175882;27;20469;-46
2022/05/04 13:56:27;;;;;;;2.35;1.58;;;;;;;14.61;69.80;99253.66;5175694;27;19923;-46
2022/05/04 13:58:53;;;;;;;3.28;1.05;;;;;;;14.24;68.22;99254.66;5175595;27;20106;-46
2022/05/04 14:01:20;;;;;;;2.97;1.50;;;;;;;13.96;68.41;99253.34;5175612;27;20095;-46
2022/05/04 14:03:48;;;;;;;2.38;1.38;;;;;;;13.74;70.55;99257.16;5175282;27;20042;-48
2022/05/04 14:06:17;;;;;;;2.63;1.45;;;;;;;14.12;69.83;99250.25;5175328;27;20156;-47
2022/05/04 14:08:44;;;;;;;2.63;1.75;;;;;;;13.80;70.82;99261.13;5174999;27;20478;-46
2022/05/04 14:11:10;;;;;;;3.17;1.70;;;;;;;13.51;69.35;99252.66;5175150;27;20054;-49
2022/05/04 14:13:36;;;;;;;4.93;1.92;;;;;;;13.39;70.70;99258.44;5175202;27;20057;-46
2022/05/04 14:16:03;;;;;;;1.80;1.40;;;;;;;13.47;68.37;99262.06;5175470;27;20352;-46
2022/05/04 14:18:31;;;;;;;1.55;1.13;;;;;;;13.53;69.56;99258.59;5175407;27;20106;-45
2022/05/04 14:20:59;;;;;;;1.30;1.20;;;;;;;13.67;67.98;99260.66;5175091;27;20054;-47
2022/05/04 14:23:25;;;;;;;4.28;1.60;;;;;;;13.74;69.26;99268.94;5174700;27;20394;-46
2022/05/04 14:25:52;;;;;;;3.42;1.40;;;;;;;13.66;68.08;99267.31;5175026;27;20046;-49
2022/05/04 14:28:19;;;;;;;5.38;2.00;;;;;;;13.74;72.51;99266.19;5174920;27;20056;-46
2022/05/04 14:30:46;;;;;;;1.85;1.65;;;;;;;13.81;70.54;99263.47;5174812;27;20052;-47
2022/05/04 14:33:13;;;;;;;2.33;1.73;;;;;;;14.19;70.02;99275.09;5175011;27;20050;-48
2022/05/04 14:35:39;;;;;;;1.80;1.52;;;;;;;14.09;67.73;99271.16;5175145;27;20141;-46
2022/05/04 14:38:05;;;;;;;2.70;1.48;;;;;;;13.84;67.12;99273.75;5175255;27;20370;-47
2022/05/04 14:40:32;;;;;;;7.35;1.70;;;;;;;13.61;70.31;99270.44;5174973;27;20046;-46
2022/05/04 14:42:59;;;;;;;2.38;1.10;;;;;;;14.16;67.86;99275.09;5175122;27;20552;-47
2022/05/04 14:45:25;;;;;;;5.50;1.95;;;;;;;14.05;71.15;99272.28;5175317;27;20054;-46
2022/05/04 14:47:52;;;;;;;7.45;1.48;;;;;;;13.92;71.64;99260.00;5174816;27;20102;-47
2022/05/04 14:50:18;;;;;;;3.22;1.73;;;;;;;14.22;70.93;99259.75;5175018;27;20046;-49
2022/05/04 14:52:44;;;;;;;3.10;1.27;;;;;;;13.99;68.61;99262.78;5174527;27;20050;-48
2022/05/04 14:55:11;;;;;;;1.65;0.80;;;;;;;13.82;67.60;99267.81;5174649;27;20401;-47
2022/05/04 14:57:38;;;;;;;2.90;1.20;;;;;;;13.89;67.35;99265.13;5174728;27;20065;-50
2022/05/04 15:00:05;;;;;;;6.07;2.95;;;;;;;13.71;69.73;99279.94;5174562;27;20053;-45
2022/05/04 15:02:31;;;;;;;5.95;1.35;;;;;;;13.51;68.21;99271.94;5174234;27;20050;-46
2022/05/04 15:05:03;;;;;;;3.22;1.48;;;;;;;13.33;67.48;99276.53;5174558;27;20050;-48
2022/05/04 15:07:32;;;;;;;1.80;1.65;;;;;;;13.27;69.50;99273.31;5174523;27;20145;-46
2022/05/04 15:09:58;;;;;;;2.20;1.50;;;;;;;13.25;70.77;99269.34;5174412;27;20050;-46
2022/05/04 15:12:24;;;;;;;3.10;1.63;;;;;;;13.17;71.40;99265.72;5174918;27;20061;-46
2022/05/04 15:14:51;;;;;;;3.70;1.90;;;;;;;13.32;72.17;99269.41;5174606;27;20443;-46
2022/05/04 15:17:17;;;;;;;1.50;1.10;;;;;;;13.47;68.12;99271.13;5174783;27;20046;-46
2022/05/04 15:19:43;;;;;;;4.50;1.88;;;;;;;13.47;74.84;99270.34;5174536;27;20053;-46
2022/05/04 15:22:10;;;;;;;3.67;1.67;;;;;;;13.68;70.57;99275.19;5174558;27;20049;-46
2022/05/04 15:24:36;;;;;;;3.83;1.40;;;;;;;13.53;69.00;99274.28;5174321;27;20072;-46
2022/05/04 15:27:04;;;;;;;4.97;1.60;;;;;;;13.24;71.17;99278.75;5174208;27;20073;-46
2022/05/04 15:29:30;;;;;;;1.00;0.88;;;;;;;13.25;66.40;99280.38;5174273;27;20122;-46
2022/05/04 15:31:57;;;;;;;1.80;1.25;;;;;;;13.36;70.50;99273.78;5173925;27;20054;-46
2022/05/04 15:34:23;;;;;;;1.27;1.17;;;;;;;13.33;68.28;99279.28;5174034;27;20046;-46
2022/05/04 15:36:49;;;;;;;1.10;0.93;;;;;;;13.30;69.11;99272.56;5174112;27;20054;-46
2022/05/04 15:39:15;;;;;;;5.60;1.80;;;;;;;13.15;71.18;99279.84;5174288;27;20053;-47
2022/05/04 15:41:42;;;;;;;1.88;1.30;;;;;;;13.05;68.78;99277.00;5173725;27;20089;-47
2022/05/04 15:44:08;;;;;;;1.63;1.17;;;;;;;13.11;70.24;99287.28;5174169;27;20050;-47
2022/05/04 15:46:35;;;;;;;4.25;1.40;;;;;;;13.12;74.54;99288.06;5173747;27;20053;-47
2022/05/04 15:49:02;;;;;;;1.15;1.05;;;;;;;13.29;73.85;99281.19;5173839;27;20046;-47
2022/05/04 15:51:29;;;;;;;2.17;1.20;;;;;;;13.41;72.07;99287.19;5173651;27;20054;-48
2022/05/04 15:53:55;;;;;;;1.58;1.10;;;;;;;13.43;71.71;99286.84;5173742;27;20042;-46
2022/05/04 15:56:22;;;;;;;2.85;1.23;;;;;;;13.45;71.35;99278.97;5173679;27;20094;-46
2022/05/04 15:58:48;;;;;;;1.98;1.50;;;;;;;13.34;71.23;99278.09;5173699;27;20046;-48
2022/05/04 16:01:14;;;;;;;4.13;1.30;;;;;;;13.23;69.15;99288.16;5173683;27;20054;-49
2022/05/04 16:03:59;;;;;;;1.75;1.50;;;;;;;13.17;73.55;99291.28;5173697;27;20046;-47
2022/05/04 16:06:26;;;;;;;1.30;0.85;;;;;;;13.21;71.71;99285.81;5173467;27;20057;-47
2022/05/04 16:08:52;;;;;;;3.08;1.50;;;;;;;13.18;71.13;99295.63;5173199;27;20531;-47
2022/05/04 16:11:19;;;;;;;1.80;0.90;;;;;;;13.22;69.34;99295.66;5173554;27;20057;-47
2022/05/04 16:13:45;;;;;;;2.53;1.83;;;;;;;13.08;72.15;99296.31;5173201;27;20122;-48
2022/05/04 16:16:11;;;;;;;1.83;1.23;;;;;;;13.00;73.89;99291.13;5172414;27;20110;-50
2022/05/04 16:21:41;;;;;;;1.85;0.98;;;;;;;12.63;71.14;99300.16;5173294;27;20068;-47
2022/05/04 16:24:09;;;;;;;2.38;1.38;;;;;;;12.68;74.01;99300.59;5173561;27;20046;-46
2022/05/04 16:26:36;;;;;;;4.82;1.42;;;;;;;12.85;74.54;99296.47;5173464;27;20566;-49
2022/05/04 16:29:02;;;;;;;2.97;1.98;;;;;;;12.93;74.06;99294.59;5173373;27;20062;-47
2022/05/04 16:31:29;;;;;;;1.98;1.55;;;;;;;12.92;73.43;99293.78;5173264;27;20092;-49
2022/05/04 16:33:55;;;;;;;1.17;1.08;;;;;;;12.92;72.82;99291.03;5173227;27;20572;-47
2022/05/04 16:36:21;;;;;;;3.10;1.50;;;;;;;13.17;75.25;99296.78;5173314;27;20458;-47
2022/05/04 16:38:47;;;;;;;1.60;1.42;;;;;;;13.34;75.62;99300.91;5173234;27;20050;-48
2022/05/04 16:41:14;;;;;;;2.17;1.67;;;;;;;13.44;75.03;99299.41;5172980;27;20050;-49
2022/05/04 16:43:40;;;;;;;1.30;1.20;;;;;;;13.49;73.95;99303.78;5172934;27;20046;-48
2022/05/04 16:46:07;;;;;;;2.28;1.70;;;;;;;13.38;72.83;99301.72;5173066;27;20046;-48
2022/05/04 16:48:33;;;;;;;1.08;1.02;;;;;;;13.40;72.79;99306.88;5172998;27;20424;-49
2022/05/04 16:51:00;;;;;;;1.90;1.58;;;;;;;13.50;74.94;99308.91;5172834;27;20046;-50
2022/05/04 16:53:29;;;;;;;3.10;1.50;;;;;;;13.33;72.33;99306.81;5172787;27;20054;-47
2022/05/04 16:55:55;;;;;;;1.55;1.35;;;;;;;13.30;75.73;99316.63;5172732;27;20046;-47
2022/05/04 16:58:22;;;;;;;2.78;1.17;;;;;;;13.46;75.21;99308.06;5172592;27;20501;-48
2022/05/04 17:00:48;;;;;;;5.20;1.45;;;;;;;13.34;76.13;99322.16;5172557;27;20046;-46
2022/05/04 17:03:14;;;;;;;1.63;1.45;;;;;;;13.21;74.54;99307.06;5172477;27;20509;-47
2022/05/04 17:05:40;;;;;;;1.30;0.85;;;;;;;13.19;72.96;99310.16;5172793;27;20056;-48
2022/05/04 17:08:07;;;;;;;1.77;1.13;;;;;;;13.02;72.90;99314.31;5172720;27;20057;-47
2022/05/04 17:10:34;;;;;;;2.15;1.33;;;;;;;12.86;73.34;99317.31;5172681;27;20433;-48
2022/05/04 17:13:00;;;;;;;1.67;0.90;;;;;;;12.68;73.14;99317.09;5172552;27;20054;-50
2022/05/04 17:15:27;;;;;;;2.40;1.30;;;;;;;12.65;76.60;99317.06;5172309;27;20417;-47
2022/05/04 17:17:53;;;;;;;1.75;1.40;;;;;;;12.69;77.53;99324.22;5172607;27;20110;-49
2022/05/04 17:20:20;;;;;;;0.90;0.90;;;;;;;12.51;75.46;99320.44;5172301;27;20046;-47
2022/05/04 17:22:46;;;;;;;3.60;1.10;;;;;;;12.29;76.01;99327.59;5172530;27;20054;-48
2022/05/04 17:25:12;;;;;;;1.80;1.20;;;;;;;12.25;78.02;99321.28;5172246;27;20099;-47
2022/05/04 17:27:38;;;;;;;2.25;1.10;;;;;;;12.38;80.71;99325.38;5172014;27;20050;-47
2022/05/04 17:30:06;;;;;;;1.35;1.17;;;;;;;12.42;80.52;99328.94;5172110;27;20493;-48
2022/05/04 17:38:01;;;;;;;;;;;;;;;12.35;78.64;99347.31;5172679;27;20046;-50
2022/05/04 17:40:27;;;;;;;4.75;1.15;;;;;;;12.25;81.07;99351.50;5172487;27;20284;-50